createdAt,value
2023-03-26T00:01:46.768Z,12.62
2023-03-26T00:04:19.767Z,12.60
2023-03-26T00:06:50.480Z,12.59
2023-03-26T00:09:18.868Z,12.56
2023-03-26T00:11:52.753Z,12.55
2023-03-26T00:14:25.294Z,12.53
2023-03-26T00:16:54.712Z,12.55
2023-03-26T00:19:23.655Z,12.54
2023-03-26T00:21:53.390Z,12.52
2023-03-26T00:24:21.770Z,12.52
2023-03-26T00:26:53.649Z,12.52
2023-03-26T00:29:24.816Z,12.51
2023-03-26T00:31:53.372Z,12.48
2023-03-26T00:34:25.050Z,12.45
2023-03-26T00:37:02.679Z,12.44
2023-03-26T00:39:35.839Z,12.44
2023-03-26T00:42:08.397Z,12.46
2023-03-26T00:44:36.558Z,12.49
2023-03-26T00:47:05.735Z,12.54
2023-03-26T00:49:35.438Z,12.61
2023-03-26T00:52:03.897Z,12.69
2023-03-26T00:54:32.627Z,12.77
2023-03-26T00:57:07.031Z,12.83
2023-03-26T00:59:36.283Z,12.85
2023-03-26T01:02:04.790Z,12.89
2023-03-26T01:04:35.321Z,12.94
2023-03-26T01:07:10.350Z,13.01
2023-03-26T01:09:43.013Z,13.07
2023-03-26T01:12:17.157Z,13.13
2023-03-26T01:14:46.839Z,13.15
2023-03-26T01:17:15.444Z,13.20
2023-03-26T01:20:26.931Z,13.25
2023-03-26T01:23:01.577Z,13.31
2023-03-26T01:25:32.720Z,13.26
2023-03-26T01:28:01.224Z,13.20
2023-03-26T01:30:37.236Z,13.20
2023-03-26T01:33:16.781Z,13.21
2023-03-26T01:36:16.562Z,13.25
2023-03-26T01:38:53.970Z,13.29
2023-03-26T01:41:47.155Z,13.31
2023-03-26T01:44:36.665Z,13.32
2023-03-26T01:47:04.795Z,13.33
2023-03-26T01:49:33.159Z,13.35
2023-03-26T01:52:01.306Z,13.36
2023-03-26T01:54:30.443Z,13.36
2023-03-26T01:57:36.571Z,13.36
2023-03-26T02:00:18.236Z,13.32
2023-03-26T02:03:01.999Z,13.28
2023-03-26T02:05:39.312Z,13.22
2023-03-26T02:08:11.984Z,13.19
2023-03-26T02:10:44.500Z,13.17
2023-03-26T02:13:16.186Z,13.10
2023-03-26T02:15:59.151Z,13.00
2023-03-26T02:18:39.131Z,12.86
2023-03-26T02:21:10.129Z,12.76
2023-03-26T02:23:41.425Z,12.65
2023-03-26T02:26:11.004Z,12.54
2023-03-26T02:28:47.159Z,12.46
2023-03-26T02:31:21.946Z,12.38
2023-03-26T02:33:50.434Z,12.28
2023-03-26T02:36:24.605Z,12.22
2023-03-26T02:38:54.397Z,12.18
2023-03-26T02:41:22.562Z,12.14
2023-03-26T02:43:57.163Z,12.11
2023-03-26T02:46:33.645Z,12.09
2023-03-26T02:49:24.961Z,12.08
2023-03-26T02:51:56.324Z,12.06
2023-03-26T02:54:31.352Z,12.05
2023-03-26T02:57:09.686Z,12.05
2023-03-26T02:59:50.553Z,12.02
2023-03-26T03:02:34.657Z,11.99
2023-03-26T03:05:15.727Z,11.96
2023-03-26T03:07:46.593Z,11.95
2023-03-26T03:10:15.708Z,11.95
2023-03-26T03:13:04.254Z,11.96
2023-03-26T03:15:35.215Z,11.96
2023-03-26T03:18:04.012Z,11.98
2023-03-26T03:20:35.355Z,11.98
2023-03-26T03:23:05.310Z,11.98
2023-03-26T03:25:34.833Z,11.95
2023-03-26T03:28:08.933Z,11.93
2023-03-26T03:30:37.037Z,11.88
2023-03-26T03:33:20.808Z,11.87
2023-03-26T03:35:50.223Z,11.84
2023-03-26T03:38:20.762Z,11.80
2023-03-26T03:40:50.398Z,11.77
2023-03-26T03:43:19.385Z,11.74
2023-03-26T03:46:00.704Z,11.68
2023-03-26T03:48:38.301Z,11.65
2023-03-26T03:51:06.871Z,11.61
2023-03-26T03:53:55.998Z,11.56
2023-03-26T03:56:55.279Z,11.51
2023-03-26T03:59:47.481Z,11.45
2023-03-26T04:02:35.234Z,11.39
2023-03-26T04:05:06.219Z,11.35
2023-03-26T04:07:35.778Z,11.33
2023-03-26T04:10:08.196Z,11.30
2023-03-26T04:12:55.412Z,11.27
2023-03-26T04:15:37.323Z,11.25
2023-03-26T04:18:10.413Z,11.23
2023-03-26T04:20:42.274Z,11.22
2023-03-26T04:23:14.322Z,11.21
2023-03-26T04:25:50.962Z,11.24
2023-03-26T04:28:55.047Z,11.30
2023-03-26T04:31:31.352Z,11.36
2023-03-26T04:34:08.448Z,11.38
2023-03-26T04:36:46.477Z,11.40
2023-03-26T04:39:16.509Z,11.39
2023-03-26T04:42:03.311Z,11.39
2023-03-26T04:44:50.919Z,11.42
2023-03-26T04:47:19.872Z,11.46
2023-03-26T04:49:48.786Z,11.49
2023-03-26T04:52:17.414Z,11.51
2023-03-26T04:54:57.624Z,11.55
2023-03-26T04:57:32.885Z,11.59
2023-03-26T05:00:15.534Z,11.63
2023-03-26T05:02:50.625Z,11.66
2023-03-26T05:05:20.352Z,11.67
2023-03-26T05:07:48.429Z,11.67
2023-03-26T05:10:17.518Z,11.66
2023-03-26T05:13:04.742Z,11.64
2023-03-26T05:15:39.667Z,11.64
2023-03-26T05:18:16.726Z,11.65
2023-03-26T05:20:49.166Z,11.67
2023-03-26T05:23:19.533Z,11.68
2023-03-26T05:25:53.625Z,11.71
2023-03-26T05:28:25.717Z,11.75
2023-03-26T05:31:01.375Z,11.79
2023-03-26T05:33:32.823Z,11.83
2023-03-26T05:36:09.730Z,11.84
2023-03-26T05:38:42.211Z,11.85
2023-03-26T05:41:11.300Z,11.87
2023-03-26T05:43:45.004Z,11.88
2023-03-26T05:46:16.970Z,11.90
2023-03-26T05:48:46.782Z,11.96
2023-03-26T05:51:15.855Z,12.00
2023-03-26T05:53:52.709Z,12.04
2023-03-26T05:56:40.753Z,12.09
2023-03-26T05:59:29.351Z,12.15
2023-03-26T06:02:36.575Z,12.22
2023-03-26T06:05:49.456Z,12.29
2023-03-26T06:08:30.300Z,12.26
2023-03-26T06:10:59.940Z,12.32
2023-03-26T06:13:34.125Z,12.54
2023-03-26T06:16:03.590Z,12.90
2023-03-26T06:18:37.961Z,13.26
2023-03-26T06:21:32.891Z,13.69
2023-03-26T06:24:08.302Z,14.24
2023-03-26T06:26:46.980Z,15.10
2023-03-26T06:29:45.980Z,16.58
2023-03-26T06:32:41.059Z,18.19
2023-03-26T06:35:13.807Z,19.49
2023-03-26T06:37:42.603Z,20.61
2023-03-26T06:40:11.941Z,21.66
2023-03-26T06:43:20.487Z,22.88
2023-03-26T06:46:09.716Z,23.81
2023-03-26T06:49:04.154Z,24.53
2023-03-26T06:52:03.109Z,24.96
2023-03-26T06:55:00.493Z,25.29
2023-03-26T06:57:51.777Z,25.41
2023-03-26T07:00:42.542Z,25.55
2023-03-26T07:03:33.915Z,25.79
2023-03-26T07:06:38.139Z,25.99
2023-03-26T07:09:26.445Z,26.20
2023-03-26T07:12:33.925Z,26.32
2023-03-26T07:15:21.394Z,26.05
2023-03-26T07:17:52.852Z,25.87
2023-03-26T07:20:29.642Z,25.88
2023-03-26T07:22:58.204Z,25.74
2023-03-26T07:25:54.868Z,25.57
2023-03-26T07:28:42.217Z,25.41
2023-03-26T07:32:19.028Z,24.80
2023-03-26T07:34:52.010Z,23.76
2023-03-26T07:37:53.383Z,22.55
2023-03-26T07:40:57.858Z,21.20
2023-03-26T07:43:57.563Z,20.14
2023-03-26T07:46:53.583Z,19.06
2023-03-26T07:49:35.500Z,18.41
2023-03-26T07:52:24.761Z,17.69
2023-03-26T07:55:07.854Z,17.27
2023-03-26T07:58:15.489Z,16.92
2023-03-26T08:01:13.358Z,16.68
2023-03-26T08:04:23.622Z,16.52
2023-03-26T08:07:42.657Z,16.45
2023-03-26T08:10:27.514Z,16.37
2023-03-26T08:13:10.440Z,16.31
2023-03-26T08:15:47.798Z,16.27
2023-03-26T08:18:49.472Z,16.12
2023-03-26T08:21:23.830Z,15.76
2023-03-26T08:24:14.336Z,15.55
2023-03-26T08:27:01.893Z,15.45
2023-03-26T08:29:35.432Z,15.45
2023-03-26T08:32:04.683Z,15.46
2023-03-26T08:34:33.213Z,15.50
2023-03-26T08:37:01.687Z,15.51
2023-03-26T08:39:30.702Z,15.55
2023-03-26T08:42:10.248Z,15.64
2023-03-26T08:45:14.847Z,15.74
2023-03-26T08:47:59.625Z,15.81
2023-03-26T08:50:42.864Z,15.85
2023-03-26T08:53:23.311Z,15.94
2023-03-26T08:56:30.464Z,16.01
2023-03-26T08:59:04.777Z,15.99
2023-03-26T09:01:39.381Z,15.96
2023-03-26T09:04:54.027Z,15.97
2023-03-26T09:07:28.292Z,16.04
2023-03-26T09:10:15.293Z,16.09
2023-03-26T09:13:04.632Z,16.15
2023-03-26T09:15:49.828Z,16.17
2023-03-26T09:18:40.707Z,16.13
2023-03-26T09:21:31.750Z,16.04
2023-03-26T09:24:28.247Z,16.02
2023-03-26T09:27:24.645Z,15.99
2023-03-26T09:30:30.794Z,15.92
2023-03-26T09:33:56.466Z,15.94
2023-03-26T09:36:51.026Z,16.04
2023-03-26T09:39:37.856Z,16.13
2023-03-26T09:42:31.958Z,16.19
2023-03-26T09:45:00.032Z,16.26
2023-03-26T09:47:37.634Z,16.30
2023-03-26T09:50:16.457Z,16.33
2023-03-26T09:52:55.208Z,16.30
2023-03-26T09:55:36.833Z,16.15
2023-03-26T09:58:34.536Z,15.93
2023-03-26T10:01:41.762Z,15.75
2023-03-26T10:04:20.951Z,15.66
2023-03-26T10:07:01.541Z,15.57
2023-03-26T10:09:37.739Z,15.42
2023-03-26T10:12:27.327Z,15.30
2023-03-26T10:14:58.664Z,15.18
2023-03-26T10:17:36.478Z,15.11
2023-03-26T10:20:42.979Z,15.05
2023-03-26T10:23:19.086Z,15.04
2023-03-26T10:26:06.318Z,15.05
2023-03-26T10:28:48.770Z,15.06
2023-03-26T10:31:44.656Z,15.07
2023-03-26T10:34:39.233Z,15.07
2023-03-26T10:37:14.474Z,15.06
2023-03-26T10:40:02.142Z,15.05
2023-03-26T10:43:03.692Z,14.96
2023-03-26T10:45:41.080Z,14.80
2023-03-26T10:48:21.600Z,14.71
2023-03-26T10:50:54.675Z,14.67
2023-03-26T10:53:41.768Z,14.67
2023-03-26T10:56:15.797Z,14.70
2023-03-26T10:58:48.489Z,14.80
2023-03-26T11:01:50.754Z,15.00
2023-03-26T11:04:21.057Z,15.26
2023-03-26T11:06:51.896Z,15.47
2023-03-26T11:09:28.628Z,15.68
2023-03-26T11:12:25.604Z,15.86
2023-03-26T11:15:08.004Z,16.03
2023-03-26T11:17:40.320Z,16.11
2023-03-26T11:20:17.367Z,16.11
2023-03-26T11:22:54.610Z,16.05
2023-03-26T11:25:34.679Z,16.04
2023-03-26T11:28:04.081Z,16.04
2023-03-26T11:30:44.633Z,15.99
2023-03-26T11:33:18.279Z,15.95
2023-03-26T11:35:51.513Z,15.95
2023-03-26T11:38:45.167Z,15.97
2023-03-26T11:41:23.139Z,15.97
2023-03-26T11:44:28.269Z,15.97
2023-03-26T11:46:58.983Z,15.96
2023-03-26T11:49:28.463Z,16.00
2023-03-26T11:51:58.651Z,16.11
2023-03-26T11:54:28.084Z,16.23
2023-03-26T11:57:16.691Z,16.31
2023-03-26T12:00:04.514Z,16.35
2023-03-26T12:02:57.675Z,16.37
2023-03-26T12:05:31.638Z,16.40
2023-03-26T12:08:18.725Z,16.47
2023-03-26T12:10:51.870Z,16.50
2023-03-26T12:13:42.084Z,16.48
2023-03-26T12:16:17.956Z,16.47
2023-03-26T12:18:47.638Z,16.47
2023-03-26T12:21:18.910Z,16.48
2023-03-26T12:24:01.460Z,16.50
2023-03-26T12:26:42.244Z,16.60
2023-03-26T12:29:15.959Z,16.72
2023-03-26T12:31:58.117Z,16.81
2023-03-26T12:34:34.934Z,16.83
2023-03-26T12:37:04.683Z,16.78
2023-03-26T12:40:10.665Z,16.73
2023-03-26T12:44:48.633Z,16.66
2023-03-26T12:45:17.886Z,16.54
2023-03-26T12:47:58.926Z,16.47
2023-03-26T12:50:50.397Z,16.40
2023-03-26T12:53:32.045Z,16.33
2023-03-26T12:56:38.826Z,16.19
2023-03-26T12:59:49.071Z,16.06
2023-03-26T13:02:44.089Z,16.08
2023-03-26T13:05:40.483Z,16.22
2023-03-26T13:08:32.929Z,16.35
2023-03-26T13:11:40.099Z,16.44
2023-03-26T13:14:18.900Z,16.47
2023-03-26T13:17:34.704Z,16.47
2023-03-26T13:20:28.149Z,16.47
2023-03-26T13:23:17.806Z,16.43
2023-03-26T13:26:09.720Z,16.35
2023-03-26T13:29:24.310Z,16.29
2023-03-26T13:32:06.016Z,16.19
2023-03-26T13:34:38.342Z,16.07
2023-03-26T13:37:37.249Z,15.93
2023-03-26T13:40:54.005Z,15.84
2023-03-26T13:43:24.877Z,15.76
2023-03-26T13:46:05.836Z,15.71
2023-03-26T13:48:39.273Z,15.74
2023-03-26T13:51:17.215Z,15.81
2023-03-26T13:53:51.063Z,15.89
2023-03-26T13:56:29.705Z,15.94
2023-03-26T13:59:01.560Z,16.01
2023-03-26T14:01:36.401Z,16.08
2023-03-26T14:04:17.957Z,16.09
2023-03-26T14:06:48.965Z,16.02
2023-03-26T14:09:37.136Z,15.90
2023-03-26T14:12:21.200Z,15.74
2023-03-26T14:14:57.967Z,15.64
2023-03-26T14:17:42.042Z,15.59
2023-03-26T14:20:47.868Z,15.51
2023-03-26T14:23:39.274Z,15.42
2023-03-26T14:26:26.716Z,15.34
2023-03-26T14:29:23.841Z,15.25
2023-03-26T14:32:41.200Z,15.17
2023-03-26T14:35:28.936Z,15.10
2023-03-26T14:38:19.564Z,14.99
2023-03-26T14:41:06.417Z,14.90
2023-03-26T14:43:38.732Z,14.83
2023-03-26T14:46:19.250Z,14.80
2023-03-26T14:49:06.441Z,14.75
2023-03-26T14:51:42.427Z,14.64
2023-03-26T14:54:22.115Z,14.53
2023-03-26T14:57:17.515Z,14.44
2023-03-26T14:59:58.127Z,14.34
2023-03-26T15:03:00.033Z,14.27
2023-03-26T15:06:02.084Z,14.26
2023-03-26T15:09:09.756Z,14.32
2023-03-26T15:12:12.410Z,14.35
2023-03-26T15:14:51.140Z,14.35
2023-03-26T15:17:58.176Z,14.34
2023-03-26T15:20:50.376Z,14.31
2023-03-26T15:23:44.367Z,14.26
2023-03-26T15:26:45.655Z,14.22
2023-03-26T15:29:26.188Z,14.20
2023-03-26T15:32:22.477Z,14.19
2023-03-26T15:35:21.809Z,14.12
2023-03-26T15:38:06.009Z,14.06
2023-03-26T15:40:56.669Z,14.00
2023-03-26T15:43:28.488Z,13.94
2023-03-26T15:46:14.212Z,13.88
2023-03-26T15:48:50.980Z,13.81
2023-03-26T15:51:28.656Z,13.75
2023-03-26T15:54:01.106Z,13.70
2023-03-26T15:56:58.374Z,13.63
2023-03-26T16:00:15.431Z,13.55
2023-03-26T16:02:50.569Z,13.46
2023-03-26T16:05:24.817Z,13.39
2023-03-26T16:07:58.960Z,13.33
2023-03-26T16:10:47.517Z,13.27
2023-03-26T16:13:35.440Z,13.19
2023-03-26T16:16:07.339Z,13.13
2023-03-26T16:18:41.277Z,13.08
2023-03-26T16:21:30.640Z,13.03
2023-03-26T16:24:08.267Z,12.96
2023-03-26T16:26:40.141Z,12.91
2023-03-26T16:29:14.986Z,12.88
2023-03-26T16:32:23.223Z,12.84
2023-03-26T16:35:10.286Z,12.80
2023-03-26T16:37:46.156Z,12.75
2023-03-26T16:40:28.823Z,12.71
2023-03-26T16:43:06.038Z,12.67
2023-03-26T16:45:59.985Z,12.65
2023-03-26T16:48:41.935Z,12.63
2023-03-26T16:51:27.930Z,12.61
2023-03-26T16:54:05.588Z,12.59
2023-03-26T16:56:44.178Z,12.57
2023-03-26T16:59:38.759Z,12.55
2023-03-26T17:02:31.809Z,12.55
2023-03-26T17:05:21.285Z,12.57
2023-03-26T17:07:55.909Z,12.59
2023-03-26T17:10:43.267Z,12.62
2023-03-26T17:13:40.910Z,12.61
2023-03-26T17:16:12.092Z,12.59
2023-03-26T17:18:56.918Z,12.57
2023-03-26T17:21:45.552Z,12.58
2023-03-26T17:24:17.894Z,12.59
2023-03-26T17:27:18.423Z,12.57
2023-03-26T17:30:04.204Z,12.54
2023-03-26T17:33:19.384Z,12.51
2023-03-26T17:35:50.092Z,12.48
2023-03-26T17:38:25.875Z,12.46
2023-03-26T17:40:58.960Z,12.42
2023-03-26T17:43:43.158Z,12.37
2023-03-26T17:46:21.117Z,12.32
2023-03-26T17:49:01.652Z,12.29
2023-03-26T17:51:30.056Z,12.25
2023-03-26T17:53:59.265Z,12.23
2023-03-26T17:56:29.338Z,12.19
2023-03-26T17:59:11.929Z,12.16
2023-03-26T18:01:42.448Z,12.13
2023-03-26T18:04:25.953Z,12.09
2023-03-26T18:07:04.185Z,12.06
2023-03-26T18:09:56.924Z,12.02
2023-03-26T18:12:50.873Z,11.99
2023-03-26T18:15:36.319Z,11.95
2023-03-26T18:18:10.914Z,11.89
2023-03-26T18:20:42.665Z,11.86
2023-03-26T18:23:12.710Z,11.85
2023-03-26T18:25:42.394Z,11.82
2023-03-26T18:28:13.026Z,11.80
2023-03-26T18:30:47.134Z,11.78
2023-03-26T18:33:15.910Z,11.74
2023-03-26T18:35:46.343Z,11.72
2023-03-26T18:38:36.027Z,11.69
2023-03-26T18:41:08.655Z,11.68
2023-03-26T18:43:43.860Z,11.65
2023-03-26T18:46:14.061Z,11.63
2023-03-26T18:48:44.342Z,11.60
2023-03-26T18:51:12.718Z,11.58
2023-03-26T18:53:45.310Z,11.55
2023-03-26T18:56:35.409Z,11.50
2023-03-26T18:59:32.870Z,11.46
2023-03-26T19:02:07.566Z,11.41
2023-03-26T19:04:37.300Z,11.37
2023-03-26T19:07:06.720Z,11.33
2023-03-26T19:09:34.812Z,11.30
2023-03-26T19:12:18.369Z,11.28
2023-03-26T19:15:09.967Z,11.26
2023-03-26T19:17:47.259Z,11.22
2023-03-26T19:20:21.138Z,11.18
2023-03-26T19:22:49.314Z,11.14
2023-03-26T19:25:28.432Z,11.11
2023-03-26T19:27:56.560Z,11.10
2023-03-26T19:30:33.273Z,11.09
2023-03-26T19:33:15.973Z,11.07
2023-03-26T19:35:46.287Z,11.05
2023-03-26T19:38:26.083Z,11.03
2023-03-26T19:40:58.060Z,10.99
2023-03-26T19:43:26.777Z,10.95
2023-03-26T19:46:00.446Z,10.94
2023-03-26T19:48:45.881Z,10.93
2023-03-26T19:51:41.752Z,10.93
2023-03-26T19:54:16.159Z,10.93
2023-03-26T19:56:44.465Z,10.91
2023-03-26T19:59:14.290Z,10.90
2023-03-26T20:01:42.616Z,10.89
2023-03-26T20:04:11.219Z,10.87
2023-03-26T20:06:44.132Z,10.85
2023-03-26T20:09:14.096Z,10.81
2023-03-26T20:11:42.603Z,10.80
2023-03-26T20:14:21.672Z,10.78
2023-03-26T20:16:50.239Z,10.74
2023-03-26T20:19:19.265Z,10.72
2023-03-26T20:21:55.778Z,10.69
2023-03-26T20:24:24.865Z,10.66
2023-03-26T20:26:53.166Z,10.63
2023-03-26T20:29:22.012Z,10.59
2023-03-26T20:31:50.209Z,10.55
2023-03-26T20:34:23.633Z,10.52
2023-03-26T20:36:54.480Z,10.47
2023-03-26T20:39:26.400Z,10.43
2023-03-26T20:41:54.785Z,10.39
2023-03-26T20:44:23.193Z,10.36
2023-03-26T20:46:51.692Z,10.33
2023-03-26T20:49:22.172Z,10.29
2023-03-26T20:51:50.547Z,10.26
2023-03-26T20:54:25.594Z,10.23
2023-03-26T20:56:54.406Z,10.19
2023-03-26T20:59:27.038Z,10.16
2023-03-26T21:01:59.491Z,10.11
2023-03-26T21:04:28.037Z,10.07
2023-03-26T21:07:07.040Z,10.04
2023-03-26T21:09:41.556Z,9.99
2023-03-26T21:12:41.490Z,9.96
2023-03-26T21:15:22.899Z,9.92
2023-03-26T21:17:52.656Z,9.88
2023-03-26T21:20:21.348Z,9.83
2023-03-26T21:23:31.168Z,9.79
2023-03-26T21:26:09.684Z,9.76
2023-03-26T21:28:46.788Z,9.72
2023-03-26T21:31:24.904Z,9.69
2023-03-26T21:33:55.312Z,9.67
2023-03-26T21:36:24.540Z,9.65
2023-03-26T21:38:54.836Z,9.63
2023-03-26T21:41:23.166Z,9.61
2023-03-26T21:43:52.398Z,9.60
2023-03-26T21:46:21.038Z,9.60
2023-03-26T21:48:54.252Z,9.59
2023-03-26T21:51:26.393Z,9.57
2023-03-26T21:54:01.519Z,9.56
2023-03-26T21:56:33.491Z,9.55
2023-03-26T21:59:37.630Z,9.54
2023-03-26T22:02:19.154Z,9.53
2023-03-26T22:05:06.165Z,9.51
2023-03-26T22:07:54.510Z,9.49
2023-03-26T22:10:23.315Z,9.48
2023-03-26T22:12:53.993Z,9.47
2023-03-26T22:15:22.221Z,9.46
2023-03-26T22:17:54.252Z,9.47
2023-03-26T22:20:25.660Z,9.46
2023-03-26T22:22:55.437Z,9.45
2023-03-26T22:25:23.559Z,9.45
2023-03-26T22:27:58.160Z,9.44
2023-03-26T22:30:27.350Z,9.42
2023-03-26T22:32:56.039Z,9.39
2023-03-26T22:35:24.709Z,9.37
2023-03-26T22:37:52.944Z,9.35
2023-03-26T22:40:29.790Z,9.35
2023-03-26T22:42:58.438Z,9.33
2023-03-26T22:45:30.252Z,9.31
2023-03-26T22:48:03.535Z,9.29
2023-03-26T22:50:33.006Z,9.25
2023-03-26T22:53:02.427Z,9.23
2023-03-26T22:55:30.619Z,9.18
2023-03-26T22:58:05.260Z,9.15
2023-03-26T23:00:34.907Z,9.12
2023-03-26T23:03:04.792Z,9.09
2023-03-26T23:05:34.075Z,9.07
2023-03-26T23:08:03.100Z,9.05
2023-03-26T23:10:31.584Z,9.01
2023-03-26T23:13:00.877Z,8.99
2023-03-26T23:15:30.628Z,8.96
2023-03-26T23:17:59.573Z,8.94
2023-03-26T23:20:29.337Z,8.91
2023-03-26T23:22:57.461Z,8.90
2023-03-26T23:25:33.160Z,8.89
2023-03-26T23:28:03.523Z,8.87
2023-03-26T23:30:32.199Z,8.86
2023-03-26T23:33:01.750Z,8.85
2023-03-26T23:35:30.306Z,8.83
2023-03-26T23:38:02.339Z,8.81
2023-03-26T23:40:30.486Z,8.79
2023-03-26T23:42:58.556Z,8.77
2023-03-26T23:45:27.240Z,8.75
2023-03-26T23:47:56.336Z,8.74
2023-03-26T23:50:31.502Z,8.73
2023-03-26T23:53:00.195Z,8.72
2023-03-26T23:55:28.335Z,8.71
2023-03-26T23:57:56.436Z,8.69
